Annapolis, Indiana
Current Conditions -  °F | °C
As of 12:15 AM on Sunday 26 Oct 2014 (Local Time) from KPRG Reporting Station
Clear Clear  
Wind Chill: 53°   Ceiling: Unl
Heat Index: 53°   Visibility: 10mi
Dew Point: 46°   Wind: 5mph
Humidity: 79%   Direction: 320°NW
Pressure: 30.01"   Gusts: NA
Location:  39.8468°N, 87.2662°W
Report Text: KPRG 260415Z AUTO 32004KT 10SM CLR 12/08 A3001 RMK AO2 T01150080
Loading
Personal Weather Stations






























Interactive Weather Map
Tropical Storm Tracking
New forecast layout! Learn more

10-Day Weather Forecast

Advertisements
Track Severe Weather on mobile